sensor_id;sensor_type;location;lat;lon;timestamp;pressure;altitude;pressure_sealevel;temperature;humidity
61384;BME280;63511;49.346;8.798;2023-03-11T00:00:36;99162.72;;;5.19;56.89
61384;BME280;63511;49.346;8.798;2023-03-11T00:03:05;99151.66;;;5.16;55.47
61384;BME280;63511;49.346;8.798;2023-03-11T00:05:35;99154.16;;;5.16;56.01
61384;BME280;63511;49.346;8.798;2023-03-11T00:08:03;99180.50;;;5.10;56.05
61384;BME280;63511;49.346;8.798;2023-03-11T00:10:34;99184.50;;;5.08;55.62
61384;BME280;63511;49.346;8.798;2023-03-11T00:13:02;99178.44;;;5.05;55.09
61384;BME280;63511;49.346;8.798;2023-03-11T00:15:31;99196.81;;;4.94;54.51
61384;BME280;63511;49.346;8.798;2023-03-11T00:17:58;99189.66;;;4.87;54.60
61384;BME280;63511;49.346;8.798;2023-03-11T00:20:27;99187.78;;;5.07;53.88
61384;BME280;63511;49.346;8.798;2023-03-11T00:22:56;99185.06;;;5.04;54.07
61384;BME280;63511;49.346;8.798;2023-03-11T00:25:25;99183.75;;;5.09;53.61
61384;BME280;63511;49.346;8.798;2023-03-11T00:27:52;99191.50;;;4.89;52.81
61384;BME280;63511;49.346;8.798;2023-03-11T00:30:19;99196.72;;;4.69;52.96
61384;BME280;63511;49.346;8.798;2023-03-11T00:32:47;99208.00;;;5.10;53.82
61384;BME280;63511;49.346;8.798;2023-03-11T00:35:15;99214.22;;;4.92;53.01
61384;BME280;63511;49.346;8.798;2023-03-11T00:37:43;99205.59;;;5.24;52.94
61384;BME280;63511;49.346;8.798;2023-03-11T00:40:14;99220.75;;;5.02;53.57
61384;BME280;63511;49.346;8.798;2023-03-11T00:42:41;99234.03;;;5.01;53.04
61384;BME280;63511;49.346;8.798;2023-03-11T00:45:08;99213.78;;;4.98;52.90
61384;BME280;63511;49.346;8.798;2023-03-11T00:47:36;99228.03;;;5.22;53.42
61384;BME280;63511;49.346;8.798;2023-03-11T00:50:03;99217.16;;;4.63;53.71
61384;BME280;63511;49.346;8.798;2023-03-11T00:52:30;99226.03;;;5.30;52.88
61384;BME280;63511;49.346;8.798;2023-03-11T00:54:57;99234.53;;;5.32;52.25
61384;BME280;63511;49.346;8.798;2023-03-11T00:57:25;99204.09;;;5.14;52.42
61384;BME280;63511;49.346;8.798;2023-03-11T00:59:53;99226.72;;;4.92;53.14
61384;BME280;63511;49.346;8.798;2023-03-11T01:02:20;99212.38;;;5.01;53.25
61384;BME280;63511;49.346;8.798;2023-03-11T01:04:46;99225.72;;;5.25;53.32
61384;BME280;63511;49.346;8.798;2023-03-11T01:07:13;99206.25;;;5.21;54.20
61384;BME280;63511;49.346;8.798;2023-03-11T01:09:39;99230.84;;;4.45;54.08
61384;BME280;63511;49.346;8.798;2023-03-11T01:12:06;99235.94;;;4.58;55.01
61384;BME280;63511;49.346;8.798;2023-03-11T01:14:34;99215.06;;;4.58;55.40
61384;BME280;63511;49.346;8.798;2023-03-11T01:17:00;99257.03;;;4.50;55.52
61384;BME280;63511;49.346;8.798;2023-03-11T01:19:27;99253.47;;;4.70;54.27
61384;BME280;63511;49.346;8.798;2023-03-11T01:21:53;99231.41;;;4.99;54.63
61384;BME280;63511;49.346;8.798;2023-03-11T01:24:20;99249.88;;;4.55;54.85
61384;BME280;63511;49.346;8.798;2023-03-11T01:26:46;99240.97;;;4.93;54.52
61384;BME280;63511;49.346;8.798;2023-03-11T01:29:13;99251.94;;;4.72;57.09
61384;BME280;63511;49.346;8.798;2023-03-11T01:31:43;99244.75;;;4.53;57.83
61384;BME280;63511;49.346;8.798;2023-03-11T01:34:10;99252.72;;;4.26;57.17
61384;BME280;63511;49.346;8.798;2023-03-11T01:36:36;99245.38;;;4.39;58.06
61384;BME280;63511;49.346;8.798;2023-03-11T01:39:03;99231.63;;;4.22;57.77
61384;BME280;63511;49.346;8.798;2023-03-11T01:41:30;99240.16;;;4.48;57.64
61384;BME280;63511;49.346;8.798;2023-03-11T01:43:56;99230.53;;;4.64;59.31
61384;BME280;63511;49.346;8.798;2023-03-11T01:46:25;99225.84;;;4.45;56.25
61384;BME280;63511;49.346;8.798;2023-03-11T01:48:54;99236.50;;;4.78;55.91
61384;BME280;63511;49.346;8.798;2023-03-11T01:51:28;99242.72;;;4.94;56.75
61384;BME280;63511;49.346;8.798;2023-03-11T01:53:56;99247.03;;;4.62;56.59
61384;BME280;63511;49.346;8.798;2023-03-11T01:56:24;99266.16;;;4.50;56.53
61384;BME280;63511;49.346;8.798;2023-03-11T01:58:52;99273.00;;;4.52;56.90
61384;BME280;63511;49.346;8.798;2023-03-11T02:01:20;99277.53;;;4.35;56.46
61384;BME280;63511;49.346;8.798;2023-03-11T02:03:48;99271.75;;;4.81;56.35
61384;BME280;63511;49.346;8.798;2023-03-11T02:06:21;99275.00;;;4.80;55.72
61384;BME280;63511;49.346;8.798;2023-03-11T02:08:49;99277.84;;;4.84;55.97
61384;BME280;63511;49.346;8.798;2023-03-11T02:11:18;99283.59;;;4.83;56.76
61384;BME280;63511;49.346;8.798;2023-03-11T02:13:46;99281.44;;;5.11;56.21
61384;BME280;63511;49.346;8.798;2023-03-11T02:16:15;99296.53;;;4.78;57.29
61384;BME280;63511;49.346;8.798;2023-03-11T02:18:42;99290.88;;;5.03;56.67
61384;BME280;63511;49.346;8.798;2023-03-11T02:21:20;99292.63;;;5.04;55.71
61384;BME280;63511;49.346;8.798;2023-03-11T02:23:55;99283.81;;;5.09;56.40
61384;BME280;63511;49.346;8.798;2023-03-11T02:26:28;99291.22;;;4.85;55.57
61384;BME280;63511;49.346;8.798;2023-03-11T02:28:57;99283.50;;;4.93;57.06
61384;BME280;63511;49.346;8.798;2023-03-11T02:31:24;99276.09;;;4.83;57.16
61384;BME280;63511;49.346;8.798;2023-03-11T02:33:52;99263.41;;;4.92;56.85
61384;BME280;63511;49.346;8.798;2023-03-11T02:36:34;99248.19;;;4.32;57.36
61384;BME280;63511;49.346;8.798;2023-03-11T02:39:01;99265.22;;;4.71;57.17
61384;BME280;63511;49.346;8.798;2023-03-11T02:41:30;99267.31;;;5.11;56.27
61384;BME280;63511;49.346;8.798;2023-03-11T02:43:59;99271.09;;;4.83;57.69
61384;BME280;63511;49.346;8.798;2023-03-11T02:46:27;99272.47;;;4.68;56.71
61384;BME280;63511;49.346;8.798;2023-03-11T02:48:55;99274.53;;;4.62;57.88
61384;BME280;63511;49.346;8.798;2023-03-11T02:51:22;99276.63;;;4.22;57.55
61384;BME280;63511;49.346;8.798;2023-03-11T02:53:50;99283.03;;;4.31;57.65
61384;BME280;63511;49.346;8.798;2023-03-11T02:56:18;99288.03;;;4.31;57.49
61384;BME280;63511;49.346;8.798;2023-03-11T02:58:44;99286.38;;;4.53;58.10
61384;BME280;63511;49.346;8.798;2023-03-11T03:01:13;99284.88;;;4.78;58.01
61384;BME280;63511;49.346;8.798;2023-03-11T03:03:39;99285.31;;;4.61;57.83
61384;BME280;63511;49.346;8.798;2023-03-11T03:06:09;99287.38;;;4.55;57.84
61384;BME280;63511;49.346;8.798;2023-03-11T03:08:37;99288.56;;;4.26;58.24
61384;BME280;63511;49.346;8.798;2023-03-11T03:11:04;99292.66;;;4.14;58.83
61384;BME280;63511;49.346;8.798;2023-03-11T03:13:30;99307.72;;;3.82;60.25
61384;BME280;63511;49.346;8.798;2023-03-11T03:15:57;99299.53;;;4.50;57.40
61384;BME280;63511;49.346;8.798;2023-03-11T03:18:26;99281.94;;;4.27;58.42
61384;BME280;63511;49.346;8.798;2023-03-11T03:20:52;99288.19;;;4.10;58.38
61384;BME280;63511;49.346;8.798;2023-03-11T03:23:19;99306.81;;;4.25;58.59
61384;BME280;63511;49.346;8.798;2023-03-11T03:25:46;99308.22;;;4.22;59.54
61384;BME280;63511;49.346;8.798;2023-03-11T03:28:13;99313.06;;;4.09;58.51
61384;BME280;63511;49.346;8.798;2023-03-11T03:30:43;99326.81;;;4.25;59.03
61384;BME280;63511;49.346;8.798;2023-03-11T03:33:09;99326.81;;;4.25;59.79
61384;BME280;63511;49.346;8.798;2023-03-11T03:35:41;99325.44;;;4.29;58.96
61384;BME280;63511;49.346;8.798;2023-03-11T03:38:09;99324.06;;;4.44;58.72
61384;BME280;63511;49.346;8.798;2023-03-11T03:40:36;99325.88;;;4.68;57.02
61384;BME280;63511;49.346;8.798;2023-03-11T03:43:02;99327.44;;;4.45;58.01
61384;BME280;63511;49.346;8.798;2023-03-11T03:45:29;99339.22;;;4.36;58.28
61384;BME280;63511;49.346;8.798;2023-03-11T03:47:55;99344.13;;;4.34;58.27
61384;BME280;63511;49.346;8.798;2023-03-11T03:50:22;99351.56;;;4.01;58.62
61384;BME280;63511;49.346;8.798;2023-03-11T03:52:50;99351.00;;;3.93;59.25
61384;BME280;63511;49.346;8.798;2023-03-11T03:55:17;99346.16;;;4.06;59.28
61384;BME280;63511;49.346;8.798;2023-03-11T03:57:43;99340.88;;;4.13;58.97
61384;BME280;63511;49.346;8.798;2023-03-11T04:00:11;99347.09;;;3.97;59.81
61384;BME280;63511;49.346;8.798;2023-03-11T04:02:38;99333.53;;;3.61;60.32
61384;BME280;63511;49.346;8.798;2023-03-11T04:05:05;99328.66;;;3.84;59.26
61384;BME280;63511;49.346;8.798;2023-03-11T04:07:33;99339.53;;;3.85;60.12
61384;BME280;63511;49.346;8.798;2023-03-11T04:10:01;99347.50;;;3.91;59.78
61384;BME280;63511;49.346;8.798;2023-03-11T04:12:27;99349.03;;;3.79;60.44
61384;BME280;63511;49.346;8.798;2023-03-11T04:14:54;99342.50;;;3.91;59.39
61384;BME280;63511;49.346;8.798;2023-03-11T04:17:20;99338.47;;;3.39;60.20
61384;BME280;63511;49.346;8.798;2023-03-11T04:19:47;99349.91;;;3.48;60.40
61384;BME280;63511;49.346;8.798;2023-03-11T04:22:13;99333.03;;;3.13;60.61
61384;BME280;63511;49.346;8.798;2023-03-11T04:24:40;99331.63;;;3.27;60.54
61384;BME280;63511;49.346;8.798;2023-03-11T04:27:08;99357.34;;;3.68;60.26
61384;BME280;63511;49.346;8.798;2023-03-11T04:29:34;99356.28;;;3.76;60.39
61384;BME280;63511;49.346;8.798;2023-03-11T04:32:01;99359.75;;;3.88;60.45
61384;BME280;63511;49.346;8.798;2023-03-11T04:34:28;99352.72;;;3.94;62.05
61384;BME280;63511;49.346;8.798;2023-03-11T04:36:54;99362.53;;;3.39;61.20
61384;BME280;63511;49.346;8.798;2023-03-11T04:39:21;99369.50;;;3.43;60.47
61384;BME280;63511;49.346;8.798;2023-03-11T04:41:47;99356.13;;;3.11;61.56
61384;BME280;63511;49.346;8.798;2023-03-11T04:44:15;99366.63;;;3.49;60.25
61384;BME280;63511;49.346;8.798;2023-03-11T04:46:46;99369.69;;;3.98;59.17
61384;BME280;63511;49.346;8.798;2023-03-11T04:49:13;99364.00;;;3.79;60.13
61384;BME280;63511;49.346;8.798;2023-03-11T04:51:40;99363.91;;;3.77;59.84
61384;BME280;63511;49.346;8.798;2023-03-11T04:54:07;99365.63;;;3.78;60.48
61384;BME280;63511;49.346;8.798;2023-03-11T04:56:33;99349.84;;;3.68;59.62
61384;BME280;63511;49.346;8.798;2023-03-11T04:59:00;99374.84;;;4.11;59.18
61384;BME280;63511;49.346;8.798;2023-03-11T05:01:28;99383.50;;;3.41;60.70
61384;BME280;63511;49.346;8.798;2023-03-11T05:03:54;99385.06;;;3.61;59.97
61384;BME280;63511;49.346;8.798;2023-03-11T05:06:23;99384.28;;;3.72;60.11
61384;BME280;63511;49.346;8.798;2023-03-11T05:08:50;99379.88;;;3.27;60.83
61384;BME280;63511;49.346;8.798;2023-03-11T05:11:16;99360.41;;;3.43;61.15
61384;BME280;63511;49.346;8.798;2023-03-11T05:13:43;99393.13;;;3.36;60.35
61384;BME280;63511;49.346;8.798;2023-03-11T05:16:09;99400.25;;;3.64;60.09
61384;BME280;63511;49.346;8.798;2023-03-11T05:18:37;99396.28;;;3.66;60.39
61384;BME280;63511;49.346;8.798;2023-03-11T05:21:04;99401.00;;;3.73;60.53
61384;BME280;63511;49.346;8.798;2023-03-11T05:23:31;99397.28;;;3.68;60.49
61384;BME280;63511;49.346;8.798;2023-03-11T05:25:57;99395.94;;;4.15;59.83
61384;BME280;63511;49.346;8.798;2023-03-11T05:28:24;99382.38;;;3.27;60.84
61384;BME280;63511;49.346;8.798;2023-03-11T05:30:50;99399.44;;;3.43;60.62
61384;BME280;63511;49.346;8.798;2023-03-11T05:33:17;99401.31;;;3.56;60.67
61384;BME280;63511;49.346;8.798;2023-03-11T05:35:45;99400.69;;;3.90;61.54
61384;BME280;63511;49.346;8.798;2023-03-11T05:38:11;99406.47;;;3.17;61.44
61384;BME280;63511;49.346;8.798;2023-03-11T05:40:38;99389.94;;;3.49;61.74
61384;BME280;63511;49.346;8.798;2023-03-11T05:43:04;99405.78;;;3.60;61.57
61384;BME280;63511;49.346;8.798;2023-03-11T05:45:31;99403.59;;;3.74;62.47
61384;BME280;63511;49.346;8.798;2023-03-11T05:47:57;99401.00;;;3.73;62.38
61384;BME280;63511;49.346;8.798;2023-03-11T05:50:24;99413.50;;;3.63;62.80
61384;BME280;63511;49.346;8.798;2023-03-11T05:52:54;99416.00;;;3.63;63.18
61384;BME280;63511;49.346;8.798;2023-03-11T05:55:21;99430.25;;;3.54;62.16
61384;BME280;63511;49.346;8.798;2023-03-11T05:57:49;99434.66;;;3.46;63.49
61384;BME280;63511;49.346;8.798;2023-03-11T06:00:17;99426.41;;;3.37;63.81
61384;BME280;63511;49.346;8.798;2023-03-11T06:02:44;99427.78;;;3.33;64.46
61384;BME280;63511;49.346;8.798;2023-03-11T06:05:11;99419.91;;;3.49;64.08
61384;BME280;63511;49.346;8.798;2023-03-11T06:07:38;99421.03;;;3.32;65.50
61384;BME280;63511;49.346;8.798;2023-03-11T06:10:07;99420.78;;;3.39;63.74
61384;BME280;63511;49.346;8.798;2023-03-11T06:12:34;99424.47;;;3.65;64.73
61384;BME280;63511;49.346;8.798;2023-03-11T06:15:03;99401.56;;;3.49;63.93
61384;BME280;63511;49.346;8.798;2023-03-11T06:17:30;99422.69;;;3.74;63.89
61384;BME280;63511;49.346;8.798;2023-03-11T06:19:56;99417.03;;;3.55;62.85
61384;BME280;63511;49.346;8.798;2023-03-11T06:22:23;99425.03;;;3.51;63.08
61384;BME280;63511;49.346;8.798;2023-03-11T06:24:52;99423.06;;;3.78;63.08
61384;BME280;63511;49.346;8.798;2023-03-11T06:27:20;99426.13;;;3.54;63.33
61384;BME280;63511;49.346;8.798;2023-03-11T06:29:50;99432.63;;;3.62;64.07
61384;BME280;63511;49.346;8.798;2023-03-11T06:32:17;99437.63;;;3.62;63.61
61384;BME280;63511;49.346;8.798;2023-03-11T06:34:43;99439.13;;;3.50;64.63
61384;BME280;63511;49.346;8.798;2023-03-11T06:37:10;99447.47;;;3.51;64.40
61384;BME280;63511;49.346;8.798;2023-03-11T06:39:36;99447.19;;;3.58;64.18
61384;BME280;63511;49.346;8.798;2023-03-11T06:42:03;99454.22;;;3.52;63.72
61384;BME280;63511;49.346;8.798;2023-03-11T06:44:31;99459.25;;;3.83;64.42
61384;BME280;63511;49.346;8.798;2023-03-11T06:46:57;99463.50;;;3.84;63.62
61384;BME280;63511;49.346;8.798;2023-03-11T06:49:24;99476.03;;;3.54;64.41
61384;BME280;63511;49.346;8.798;2023-03-11T06:51:50;99473.00;;;3.68;64.16
61384;BME280;63511;49.346;8.798;2023-03-11T06:54:17;99487.03;;;3.66;64.17
61384;BME280;63511;49.346;8.798;2023-03-11T06:56:43;99493.75;;;3.77;63.27
61384;BME280;63511;49.346;8.798;2023-03-11T06:59:10;99487.75;;;4.17;61.95
61384;BME280;63511;49.346;8.798;2023-03-11T07:01:38;99490.84;;;4.25;62.44
61384;BME280;63511;49.346;8.798;2023-03-11T07:04:08;99484.59;;;4.20;61.50
61384;BME280;63511;49.346;8.798;2023-03-11T07:06:35;99494.19;;;4.04;62.04
61384;BME280;63511;49.346;8.798;2023-03-11T07:09:01;99496.25;;;4.09;61.43
61384;BME280;63511;49.346;8.798;2023-03-11T07:11:28;99516.91;;;3.97;62.44
61384;BME280;63511;49.346;8.798;2023-03-11T07:13:54;99514.06;;;3.92;62.20
61384;BME280;63511;49.346;8.798;2023-03-11T07:16:23;99509.56;;;3.98;62.52
61384;BME280;63511;49.346;8.798;2023-03-11T07:18:53;99522.06;;;3.88;62.69
61384;BME280;63511;49.346;8.798;2023-03-11T07:21:23;99495.53;;;4.00;62.62
61384;BME280;63511;49.346;8.798;2023-03-11T07:23:51;99517.19;;;4.32;61.11
61384;BME280;63511;49.346;8.798;2023-03-11T07:26:18;99517.31;;;4.33;61.33
61384;BME280;63511;49.346;8.798;2023-03-11T07:28:44;99528.09;;;4.22;61.45
61384;BME280;63511;49.346;8.798;2023-03-11T07:31:15;99527.22;;;4.21;61.81
61384;BME280;63511;49.346;8.798;2023-03-11T07:33:42;99531.34;;;4.21;61.89
61384;BME280;63511;49.346;8.798;2023-03-11T07:36:11;99522.75;;;4.49;60.68
61384;BME280;63511;49.346;8.798;2023-03-11T07:38:38;99533.84;;;4.53;60.77
61384;BME280;63511;49.346;8.798;2023-03-11T07:41:05;99537.97;;;4.52;60.43
61384;BME280;63511;49.346;8.798;2023-03-11T07:43:32;99547.09;;;4.52;59.71
61384;BME280;63511;49.346;8.798;2023-03-11T07:46:04;99549.09;;;4.56;60.21
61384;BME280;63511;49.346;8.798;2023-03-11T07:48:34;99550.94;;;4.26;61.19
61384;BME280;63511;49.346;8.798;2023-03-11T07:51:02;99560.19;;;4.27;61.67
61384;BME280;63511;49.346;8.798;2023-03-11T07:53:29;99552.91;;;4.31;61.65
61384;BME280;63511;49.346;8.798;2023-03-11T07:55:56;99553.63;;;4.50;61.36
61384;BME280;63511;49.346;8.798;2023-03-11T07:58:23;99560.34;;;4.51;61.59
61384;BME280;63511;49.346;8.798;2023-03-11T08:00:50;99562.13;;;4.74;60.78
61384;BME280;63511;49.346;8.798;2023-03-11T08:03:18;99563.00;;;4.74;61.18
61384;BME280;63511;49.346;8.798;2023-03-11T08:05:45;99566.94;;;4.82;61.30
61384;BME280;63511;49.346;8.798;2023-03-11T08:08:11;99572.84;;;5.04;59.64
61384;BME280;63511;49.346;8.798;2023-03-11T08:10:39;99578.59;;;5.03;59.54
61384;BME280;63511;49.346;8.798;2023-03-11T08:13:08;99582.63;;;5.01;57.85
61384;BME280;63511;49.346;8.798;2023-03-11T08:15:35;99573.78;;;5.50;55.85
61384;BME280;63511;49.346;8.798;2023-03-11T08:18:02;99578.66;;;6.27;55.56
61384;BME280;63511;49.346;8.798;2023-03-11T08:20:29;99590.06;;;5.88;56.46
61384;BME280;63511;49.346;8.798;2023-03-11T08:22:55;99585.38;;;6.74;54.03
61384;BME280;63511;49.346;8.798;2023-03-11T08:25:22;99593.56;;;6.72;53.53
61384;BME280;63511;49.346;8.798;2023-03-11T08:27:53;99591.81;;;5.89;54.94
61384;BME280;63511;49.346;8.798;2023-03-11T08:30:19;99610.34;;;6.03;55.56
61384;BME280;63511;49.346;8.798;2023-03-11T08:32:46;99597.47;;;5.98;55.58
61384;BME280;63511;49.346;8.798;2023-03-11T08:35:13;99599.47;;;6.72;55.33
61384;BME280;63511;49.346;8.798;2023-03-11T08:37:40;99587.00;;;6.74;54.89
61384;BME280;63511;49.346;8.798;2023-03-11T08:40:08;99607.44;;;6.44;55.11
61384;BME280;63511;49.346;8.798;2023-03-11T08:42:35;99604.13;;;6.91;52.25
61384;BME280;63511;49.346;8.798;2023-03-11T08:45:03;99608.94;;;6.53;52.77
61384;BME280;63511;49.346;8.798;2023-03-11T08:47:33;99613.41;;;5.99;53.82
61384;BME280;63511;49.346;8.798;2023-03-11T08:49:59;99605.78;;;6.44;53.37
61384;BME280;63511;49.346;8.798;2023-03-11T08:52:27;99597.41;;;6.44;53.21
61384;BME280;63511;49.346;8.798;2023-03-11T08:54:53;99599.22;;;6.00;53.26
61384;BME280;63511;49.346;8.798;2023-03-11T08:57:20;99602.84;;;6.15;53.27
61384;BME280;63511;49.346;8.798;2023-03-11T08:59:46;99611.91;;;6.24;52.51
61384;BME280;63511;49.346;8.798;2023-03-11T09:02:14;99615.13;;;6.12;52.79
61384;BME280;63511;49.346;8.798;2023-03-11T09:04:41;99612.00;;;6.72;52.16
61384;BME280;63511;49.346;8.798;2023-03-11T09:07:09;99618.16;;;5.96;52.57
61384;BME280;63511;49.346;8.798;2023-03-11T09:09:37;99623.38;;;5.66;51.60
61384;BME280;63511;49.346;8.798;2023-03-11T09:12:07;99621.94;;;6.36;51.27
61384;BME280;63511;49.346;8.798;2023-03-11T09:14:34;99627.16;;;6.27;50.93
61384;BME280;63511;49.346;8.798;2023-03-11T09:17:01;99626.41;;;5.83;51.75
61384;BME280;63511;49.346;8.798;2023-03-11T09:19:29;99627.59;;;5.55;52.05
61384;BME280;63511;49.346;8.798;2023-03-11T09:21:58;99641.22;;;6.25;51.95
61384;BME280;63511;49.346;8.798;2023-03-11T09:24:25;99625.81;;;5.97;51.30
61384;BME280;63511;49.346;8.798;2023-03-11T09:26:52;99627.16;;;6.16;51.24
61384;BME280;63511;49.346;8.798;2023-03-11T09:29:18;99626.41;;;6.40;49.79
61384;BME280;63511;49.346;8.798;2023-03-11T09:31:45;99627.97;;;5.93;50.28
61384;BME280;63511;49.346;8.798;2023-03-11T09:34:12;99628.25;;;6.77;48.83
61384;BME280;63511;49.346;8.798;2023-03-11T09:36:43;99630.84;;;7.02;47.43
61384;BME280;63511;49.346;8.798;2023-03-11T09:39:12;99627.50;;;6.44;48.95
61384;BME280;63511;49.346;8.798;2023-03-11T09:41:44;99618.72;;;6.97;47.98
61384;BME280;63511;49.346;8.798;2023-03-11T09:44:17;99617.38;;;7.25;46.48
61384;BME280;63511;49.346;8.798;2023-03-11T09:50:02;99621.59;;;6.55;47.05
61384;BME280;63511;49.346;8.798;2023-03-11T09:52:36;99622.59;;;7.28;45.18
61384;BME280;63511;49.346;8.798;2023-03-11T09:55:20;99621.44;;;7.00;43.35
61384;BME280;63511;49.346;8.798;2023-03-11T09:57:47;99623.25;;;6.77;43.62
61384;BME280;63511;49.346;8.798;2023-03-11T10:00:16;99623.34;;;6.44;46.55
61384;BME280;63511;49.346;8.798;2023-03-11T10:02:44;99611.00;;;7.80;44.78
61384;BME280;63511;49.346;8.798;2023-03-11T10:05:15;99611.25;;;8.09;44.64
61384;BME280;63511;49.346;8.798;2023-03-11T10:07:51;99605.16;;;7.67;42.28
61384;BME280;63511;49.346;8.798;2023-03-11T10:10:20;99615.06;;;7.53;44.07
61384;BME280;63511;49.346;8.798;2023-03-11T10:12:51;99609.19;;;7.77;45.40
61384;BME280;63511;49.346;8.798;2023-03-11T10:15:26;99617.66;;;8.17;43.79
61384;BME280;63511;49.346;8.798;2023-03-11T10:21:03;99607.59;;;7.66;43.19
61384;BME280;63511;49.346;8.798;2023-03-11T10:23:49;99604.44;;;7.57;42.61
61384;BME280;63511;49.346;8.798;2023-03-11T10:26:26;99607.31;;;7.75;44.09
61384;BME280;63511;49.346;8.798;2023-03-11T10:29:00;99599.50;;;8.34;42.76
61384;BME280;63511;49.346;8.798;2023-03-11T10:31:31;99604.03;;;8.27;43.53
61384;BME280;63511;49.346;8.798;2023-03-11T10:34:02;99599.34;;;8.44;41.90
61384;BME280;63511;49.346;8.798;2023-03-11T10:36:35;99611.88;;;7.80;41.49
61384;BME280;63511;49.346;8.798;2023-03-11T10:39:05;99608.97;;;8.25;42.43
61384;BME280;63511;49.346;8.798;2023-03-11T10:41:40;99622.03;;;7.57;43.11
61384;BME280;63511;49.346;8.798;2023-03-11T10:44:13;99614.28;;;7.54;43.64
61384;BME280;63511;49.346;8.798;2023-03-11T10:46:40;99620.69;;;7.87;42.75
61384;BME280;63511;49.346;8.798;2023-03-11T10:49:12;99613.91;;;8.24;44.62
61384;BME280;63511;49.346;8.798;2023-03-11T10:51:39;99621.09;;;7.43;46.25
61384;BME280;63511;49.346;8.798;2023-03-11T10:54:20;99619.38;;;7.31;46.50
61384;BME280;63511;49.346;8.798;2023-03-11T10:56:53;99630.09;;;7.64;44.94
61384;BME280;63511;49.346;8.798;2023-03-11T10:59:23;99628.97;;;7.00;45.82
61384;BME280;63511;49.346;8.798;2023-03-11T11:01:53;99626.25;;;7.08;44.59
61384;BME280;63511;49.346;8.798;2023-03-11T11:04:35;99627.28;;;7.60;44.82
61384;BME280;63511;49.346;8.798;2023-03-11T11:07:20;99633.25;;;7.37;44.54
61384;BME280;63511;49.346;8.798;2023-03-11T11:10:13;99632.97;;;7.21;44.25
61384;BME280;63511;49.346;8.798;2023-03-11T11:12:51;99638.59;;;6.94;42.66
61384;BME280;63511;49.346;8.798;2023-03-11T11:15:23;99628.66;;;6.95;45.50
61384;BME280;63511;49.346;8.798;2023-03-11T11:17:51;99626.25;;;7.08;44.37
61384;BME280;63511;49.346;8.798;2023-03-11T11:20:20;99630.22;;;7.30;44.57
61384;BME280;63511;49.346;8.798;2023-03-11T11:22:48;99633.78;;;7.69;45.22
61384;BME280;63511;49.346;8.798;2023-03-11T11:25:26;99626.72;;;8.02;45.69
61384;BME280;63511;49.346;8.798;2023-03-11T11:27:54;99624.31;;;7.65;42.32
61384;BME280;63511;49.346;8.798;2023-03-11T11:30:21;99618.66;;;7.81;44.18
61384;BME280;63511;49.346;8.798;2023-03-11T11:32:49;99616.91;;;7.80;44.40
61384;BME280;63511;49.346;8.798;2023-03-11T11:35:18;99622.22;;;8.23;43.44
61384;BME280;63511;49.346;8.798;2023-03-11T11:37:47;99615.44;;;8.22;42.74
61384;BME280;63511;49.346;8.798;2023-03-11T11:40:26;99606.66;;;8.28;42.59
61384;BME280;63511;49.346;8.798;2023-03-11T11:42:58;99609.78;;;8.37;42.38
61384;BME280;63511;49.346;8.798;2023-03-11T11:45:31;99609.50;;;7.95;43.13
61384;BME280;63511;49.346;8.798;2023-03-11T11:48:04;99603.53;;;8.19;41.33
61384;BME280;63511;49.346;8.798;2023-03-11T11:50:34;99598.97;;;8.13;44.17
61384;BME280;63511;49.346;8.798;2023-03-11T11:53:08;99606.78;;;7.92;41.52
61384;BME280;63511;49.346;8.798;2023-03-11T11:55:42;99599.94;;;8.02;41.48
61384;BME280;63511;49.346;8.798;2023-03-11T11:58:12;99604.09;;;7.39;41.01
61384;BME280;63511;49.346;8.798;2023-03-11T12:00:54;99601.91;;;7.57;41.88
61384;BME280;63511;49.346;8.798;2023-03-11T12:06:34;99600.28;;;7.33;40.21
61384;BME280;63511;49.346;8.798;2023-03-11T12:09:13;99603.06;;;7.49;39.13
61384;BME280;63511;49.346;8.798;2023-03-11T12:11:54;99606.63;;;8.02;40.30
61384;BME280;63511;49.346;8.798;2023-03-11T12:16:58;99595.28;;;8.60;40.89
61384;BME280;63511;49.346;8.798;2023-03-11T12:19:34;99587.59;;;8.71;39.79
61384;BME280;63511;49.346;8.798;2023-03-11T12:25:27;99595.66;;;9.20;39.56
61384;BME280;63511;49.346;8.798;2023-03-11T12:28:02;99594.97;;;8.29;39.25
61384;BME280;63511;49.346;8.798;2023-03-11T12:30:36;99602.00;;;7.70;39.07
61384;BME280;63511;49.346;8.798;2023-03-11T12:33:04;99607.03;;;8.21;39.94
61384;BME280;63511;49.346;8.798;2023-03-11T12:35:32;99601.94;;;7.82;40.20
61384;BME280;63511;49.346;8.798;2023-03-11T12:38:05;99593.59;;;7.83;41.99
61384;BME280;63511;49.346;8.798;2023-03-11T12:41:06;99591.50;;;7.51;41.52
61384;BME280;63511;49.346;8.798;2023-03-11T12:49:37;99596.09;;;8.07;41.93
61384;BME280;63511;49.346;8.798;2023-03-11T12:52:20;99597.44;;;8.02;41.93
61384;BME280;63511;49.346;8.798;2023-03-11T12:54:48;99605.00;;;7.53;40.74
61384;BME280;63511;49.346;8.798;2023-03-11T12:57:30;99607.34;;;7.88;41.42
61384;BME280;63511;49.346;8.798;2023-03-11T13:00:21;99591.00;;;8.32;39.88
61384;BME280;63511;49.346;8.798;2023-03-11T13:03:20;99588.66;;;8.22;37.21
61384;BME280;63511;49.346;8.798;2023-03-11T13:05:57;99578.41;;;8.72;37.08
61384;BME280;63511;49.346;8.798;2023-03-11T13:08:26;99587.09;;;8.90;36.73
61384;BME280;63511;49.346;8.798;2023-03-11T13:10:57;99583.31;;;8.04;36.78
61384;BME280;63511;49.346;8.798;2023-03-11T13:13:37;99570.69;;;8.69;37.37
61384;BME280;63511;49.346;8.798;2023-03-11T13:16:35;99568.06;;;8.41;37.64
61384;BME280;63511;49.346;8.798;2023-03-11T13:19:35;99565.44;;;8.66;36.64
61384;BME280;63511;49.346;8.798;2023-03-11T13:25:30;99574.50;;;9.31;37.89
61384;BME280;63511;49.346;8.798;2023-03-11T13:28:04;99580.63;;;8.80;38.41
61384;BME280;63511;49.346;8.798;2023-03-11T13:30:37;99582.94;;;8.90;38.57
61384;BME280;63511;49.346;8.798;2023-03-11T13:33:21;99586.72;;;9.53;37.93
61384;BME280;63511;49.346;8.798;2023-03-11T13:36:08;99596.75;;;9.10;37.29
61384;BME280;63511;49.346;8.798;2023-03-11T13:41:47;99610.06;;;8.68;36.43
61384;BME280;63511;49.346;8.798;2023-03-11T13:44:23;99614.53;;;8.59;36.87
61384;BME280;63511;49.346;8.798;2023-03-11T13:46:52;99616.19;;;8.59;35.38
61384;BME280;63511;49.346;8.798;2023-03-11T13:49:31;99611.41;;;8.50;36.72